createdAt,value
2023-05-05T00:02:36.900Z,12.48
2023-05-05T00:05:04.491Z,12.75
2023-05-05T00:07:32.043Z,10.77
2023-05-05T00:09:59.449Z,13.02
2023-05-05T00:12:26.860Z,13.00
2023-05-05T00:14:54.298Z,8.10
2023-05-05T00:17:22.100Z,10.98
2023-05-05T00:19:51.269Z,12.07
2023-05-05T00:22:19.140Z,10.65
2023-05-05T00:27:13.798Z,8.05
2023-05-05T00:29:41.524Z,16.45
2023-05-05T00:32:08.891Z,11.27
2023-05-05T00:34:36.316Z,10.63
2023-05-05T00:37:05.361Z,11.18
2023-05-05T00:39:33.175Z,13.35
2023-05-05T00:42:00.586Z,20.33
2023-05-05T00:44:37.876Z,13.48
2023-05-05T00:47:05.527Z,9.10
2023-05-05T00:49:33.437Z,10.07
2023-05-05T00:54:29.954Z,12.15
2023-05-05T00:56:57.397Z,12.57
2023-05-05T00:59:24.890Z,13.68
2023-05-05T01:01:52.406Z,8.70
2023-05-05T01:04:19.857Z,11.63
2023-05-05T01:06:51.392Z,11.50
2023-05-05T01:09:24.769Z,9.20
2023-05-05T01:11:57.622Z,16.27
2023-05-05T01:14:27.622Z,12.02
2023-05-05T01:16:58.088Z,13.00
2023-05-05T01:19:42.123Z,13.40
2023-05-05T01:22:11.726Z,12.15
2023-05-05T01:24:44.868Z,11.23
2023-05-05T01:27:20.816Z,14.40
2023-05-05T01:29:55.437Z,10.70
2023-05-05T01:32:27.256Z,10.13
2023-05-05T01:34:57.081Z,13.55
2023-05-05T01:37:27.776Z,9.90
2023-05-05T01:39:57.249Z,10.32
2023-05-05T01:42:24.809Z,9.40
2023-05-05T01:44:54.283Z,10.00
2023-05-05T01:49:51.271Z,8.60
2023-05-05T01:52:19.133Z,12.80
2023-05-05T01:54:47.697Z,14.85
2023-05-05T01:57:15.426Z,10.45
2023-05-05T01:59:43.028Z,19.23
2023-05-05T02:02:12.117Z,11.75
2023-05-05T02:04:42.068Z,13.23
2023-05-05T02:07:11.370Z,10.73
2023-05-05T02:09:39.598Z,9.02
2023-05-05T02:12:07.637Z,19.75
2023-05-05T02:14:35.592Z,9.13
2023-05-05T02:19:31.291Z,10.73
2023-05-05T02:21:58.843Z,12.90
2023-05-05T02:24:27.678Z,15.93
2023-05-05T02:26:55.958Z,11.63
2023-05-05T02:29:26.772Z,15.48
2023-05-05T02:31:54.728Z,10.55
2023-05-05T02:34:27.612Z,10.82
2023-05-05T02:36:58.062Z,12.98
2023-05-05T02:39:43.461Z,8.80
2023-05-05T02:42:16.135Z,8.00
2023-05-05T02:44:45.538Z,8.05
2023-05-05T02:47:13.720Z,9.02
2023-05-05T02:49:41.520Z,11.13
2023-05-05T02:52:09.165Z,12.02
2023-05-05T02:54:39.857Z,13.73
2023-05-05T02:57:19.273Z,11.88
2023-05-05T03:02:27.212Z,14.13
2023-05-05T03:04:57.306Z,16.27
2023-05-05T03:07:28.618Z,20.13
2023-05-05T03:09:59.003Z,17.92
2023-05-05T03:12:29.135Z,15.18
2023-05-05T03:15:06.663Z,14.10
2023-05-05T03:17:36.647Z,9.95
2023-05-05T03:20:05.547Z,11.70
2023-05-05T03:22:36.637Z,16.50
2023-05-05T03:25:09.215Z,17.75
2023-05-05T03:27:36.821Z,12.32
2023-05-05T03:30:04.647Z,25.60
2023-05-05T03:32:34.360Z,10.77
2023-05-05T03:35:01.942Z,20.38
2023-05-05T03:37:33.160Z,13.07
2023-05-05T03:42:29.698Z,24.05
2023-05-05T03:44:57.328Z,17.50
2023-05-05T03:47:25.077Z,17.17
2023-05-05T03:49:54.148Z,15.82
2023-05-05T03:52:21.602Z,18.58
2023-05-05T03:54:49.275Z,16.10
2023-05-05T03:57:16.718Z,22.73
2023-05-05T03:59:45.554Z,23.80
2023-05-05T04:02:13.514Z,16.50
2023-05-05T04:04:41.125Z,15.73
2023-05-05T04:07:08.537Z,19.45
2023-05-05T04:09:36.027Z,19.33
2023-05-05T04:14:31.221Z,23.42
2023-05-05T04:17:00.072Z,18.23
2023-05-05T04:19:27.728Z,18.38
2023-05-05T04:21:55.233Z,20.23
2023-05-05T04:24:24.730Z,19.75
2023-05-05T04:26:53.722Z,19.98
2023-05-05T04:31:48.961Z,18.50
2023-05-05T04:36:45.384Z,23.58
2023-05-05T04:39:12.942Z,26.83
2023-05-05T04:41:40.765Z,27.10
2023-05-05T04:44:09.551Z,20.92
2023-05-05T04:46:37.036Z,24.55
2023-05-05T04:49:05.790Z,21.05
2023-05-05T04:51:34.240Z,29.13
2023-05-05T04:54:03.985Z,26.48
2023-05-05T04:56:31.838Z,21.33
2023-05-05T05:01:26.821Z,23.85
2023-05-05T05:03:54.346Z,26.10
2023-05-05T05:06:21.941Z,28.25
2023-05-05T05:08:49.337Z,27.42
2023-05-05T05:11:18.053Z,35.13
2023-05-05T05:13:46.169Z,26.40
2023-05-05T05:16:13.610Z,38.30
2023-05-05T05:18:41.187Z,27.27
2023-05-05T05:21:08.784Z,27.25
2023-05-05T05:23:36.240Z,26.60
2023-05-05T05:26:05.119Z,30.50
2023-05-05T05:28:34.368Z,27.30
2023-05-05T05:31:02.919Z,31.38
2023-05-05T05:33:31.071Z,30.25
2023-05-05T05:35:59.644Z,29.38
2023-05-05T05:38:27.857Z,30.05
2023-05-05T05:40:58.657Z,27.33
2023-05-05T05:43:26.101Z,26.80
2023-05-05T05:45:54.855Z,27.80
2023-05-05T05:48:24.743Z,21.55
2023-05-05T05:50:53.168Z,30.80
2023-05-05T05:53:20.750Z,27.38
2023-05-05T05:55:48.705Z,27.50
2023-05-05T05:58:17.017Z,36.35
2023-05-05T06:00:44.791Z,32.33
2023-05-05T06:03:14.130Z,32.22
2023-05-05T06:05:42.191Z,27.17
2023-05-05T06:08:09.717Z,23.63
2023-05-05T06:10:42.579Z,24.90
2023-05-05T06:13:15.448Z,24.38
2023-05-05T06:15:46.090Z,31.08
2023-05-05T06:18:15.945Z,23.13
2023-05-05T06:20:43.675Z,36.83
2023-05-05T06:23:12.458Z,28.67
2023-05-05T06:25:44.185Z,31.70
2023-05-05T06:28:11.589Z,25.50
2023-05-05T06:30:38.961Z,25.90
2023-05-05T06:33:06.357Z,27.40
2023-05-05T06:35:35.123Z,21.90
2023-05-05T06:38:02.498Z,25.25
2023-05-05T06:40:29.913Z,24.92
2023-05-05T06:42:57.349Z,25.63
2023-05-05T06:45:31.050Z,25.42
2023-05-05T06:47:58.645Z,19.77
2023-05-05T06:50:26.055Z,25.17
2023-05-05T06:52:54.795Z,18.23
2023-05-05T06:55:23.321Z,22.38
2023-05-05T06:57:50.795Z,27.13
2023-05-05T07:00:18.646Z,23.33
2023-05-05T07:02:47.369Z,18.30
2023-05-05T07:05:14.811Z,16.98
2023-05-05T07:07:51.251Z,17.73
2023-05-05T07:10:20.551Z,21.20
2023-05-05T07:12:48.001Z,25.55
2023-05-05T07:15:26.091Z,21.40
2023-05-05T07:17:56.474Z,18.92
2023-05-05T07:20:24.329Z,14.73
2023-05-05T07:22:52.053Z,15.32
2023-05-05T07:25:20.832Z,14.73
2023-05-05T07:27:48.265Z,24.02
2023-05-05T07:30:18.488Z,14.27
2023-05-05T07:32:46.891Z,13.32
2023-05-05T07:35:14.400Z,15.63
2023-05-05T07:37:41.992Z,13.70
2023-05-05T07:40:10.118Z,11.43
2023-05-05T07:42:39.204Z,16.58
2023-05-05T07:45:07.232Z,13.07
2023-05-05T07:47:34.644Z,9.95
2023-05-05T07:50:02.298Z,13.15
2023-05-05T07:52:44.146Z,12.70
2023-05-05T07:55:13.854Z,17.67
2023-05-05T07:57:42.625Z,11.20
2023-05-05T08:00:13.157Z,11.45
2023-05-05T08:02:41.147Z,13.40
2023-05-05T08:05:09.481Z,12.35
2023-05-05T08:07:40.969Z,13.90
2023-05-05T08:10:09.286Z,12.20
2023-05-05T08:12:36.797Z,9.75
2023-05-05T08:15:06.077Z,14.02
2023-05-05T08:17:44.106Z,9.45
2023-05-05T08:20:13.850Z,10.40
2023-05-05T08:22:41.461Z,15.68
2023-05-05T08:25:10.862Z,16.77
2023-05-05T08:27:38.461Z,25.30
2023-05-05T08:30:08.231Z,14.05
2023-05-05T08:32:35.809Z,19.85
2023-05-05T08:35:04.652Z,14.25
2023-05-05T08:37:32.366Z,17.13
2023-05-05T08:40:00.217Z,13.43
2023-05-05T08:45:05.624Z,10.85
2023-05-05T08:47:35.494Z,16.27
2023-05-05T08:50:03.191Z,9.90
2023-05-05T08:52:37.702Z,16.65
2023-05-05T08:55:10.368Z,19.90
2023-05-05T08:57:43.801Z,13.20
2023-05-05T09:00:11.995Z,22.38
2023-05-05T09:02:41.880Z,15.90
2023-05-05T09:05:10.041Z,13.45
2023-05-05T09:07:37.861Z,16.80
2023-05-05T09:10:05.722Z,10.10
2023-05-05T09:12:33.550Z,11.23
2023-05-05T09:15:03.463Z,7.93
2023-05-05T09:17:31.661Z,7.65
2023-05-05T09:20:06.899Z,12.27
2023-05-05T09:22:37.013Z,13.95
2023-05-05T09:25:04.884Z,11.70
2023-05-05T09:29:59.769Z,9.07
2023-05-05T09:32:29.212Z,9.07
2023-05-05T09:34:58.753Z,10.60
2023-05-05T09:37:31.191Z,9.13
2023-05-05T09:40:00.409Z,10.57
2023-05-05T09:42:28.123Z,7.18
2023-05-05T09:44:57.818Z,7.10
2023-05-05T09:47:35.028Z,9.18
2023-05-05T09:50:02.926Z,6.57
2023-05-05T09:52:32.019Z,15.68
2023-05-05T09:54:59.459Z,27.55
2023-05-05T09:57:27.652Z,13.25
2023-05-05T09:59:58.628Z,11.75
2023-05-05T10:02:33.610Z,12.40
2023-05-05T10:05:08.091Z,18.98
2023-05-05T10:07:37.254Z,10.55
2023-05-05T10:10:05.670Z,10.48
2023-05-05T10:12:35.122Z,6.32
2023-05-05T10:15:03.661Z,7.38
2023-05-05T10:17:31.790Z,6.78
2023-05-05T10:20:01.014Z,8.50
2023-05-05T10:22:30.305Z,13.30
2023-05-05T10:25:02.655Z,4.88
2023-05-05T10:27:30.299Z,5.72
2023-05-05T10:30:01.948Z,7.80
2023-05-05T10:35:03.890Z,6.97
2023-05-05T10:37:31.337Z,9.30
2023-05-05T10:40:00.179Z,10.65
2023-05-05T10:42:27.740Z,10.20
2023-05-05T10:44:55.290Z,13.50
2023-05-05T10:47:23.530Z,9.43
2023-05-05T10:49:55.375Z,7.22
2023-05-05T10:52:27.152Z,13.25
2023-05-05T10:55:02.318Z,10.52
2023-05-05T10:57:33.481Z,16.00
2023-05-05T11:00:00.887Z,11.85
2023-05-05T11:02:28.735Z,9.73
2023-05-05T11:05:23.249Z,10.40
2023-05-05T11:07:51.531Z,10.00
2023-05-05T11:10:20.232Z,6.65
2023-05-05T11:13:06.351Z,10.75
2023-05-05T11:15:38.699Z,15.38
2023-05-05T11:18:08.208Z,14.82
2023-05-05T11:20:54.895Z,10.13
2023-05-05T11:23:22.553Z,11.65
2023-05-05T11:28:19.844Z,19.30
2023-05-05T11:31:05.956Z,15.38
2023-05-05T11:33:35.996Z,8.60
2023-05-05T11:36:06.520Z,9.23
2023-05-05T11:38:42.137Z,12.32
2023-05-05T11:41:13.414Z,11.63
2023-05-05T11:43:41.209Z,6.55
2023-05-05T11:46:11.743Z,9.63
2023-05-05T11:48:46.857Z,10.32
2023-05-05T11:51:14.331Z,12.20
2023-05-05T11:53:43.576Z,8.88
2023-05-05T11:56:11.639Z,8.55
2023-05-05T11:58:39.160Z,10.15
2023-05-05T12:01:07.068Z,8.43
2023-05-05T12:03:38.114Z,10.45
2023-05-05T12:06:07.615Z,7.53
2023-05-05T12:08:38.042Z,8.07
2023-05-05T12:11:06.011Z,11.48
2023-05-05T12:13:33.421Z,14.15
2023-05-05T12:16:08.948Z,17.25
2023-05-05T12:18:36.390Z,16.67
2023-05-05T12:21:13.339Z,11.52
2023-05-05T12:23:42.187Z,10.35
2023-05-05T12:26:24.040Z,11.70
2023-05-05T12:28:51.460Z,7.72
2023-05-05T12:31:19.183Z,8.35
2023-05-05T12:36:14.377Z,12.80
2023-05-05T12:41:10.630Z,25.27
2023-05-05T12:43:38.614Z,22.73
2023-05-05T12:46:06.986Z,21.95
2023-05-05T12:48:34.690Z,11.57
2023-05-05T12:51:12.423Z,18.98
2023-05-05T12:56:24.770Z,10.02
2023-05-05T12:58:55.163Z,15.85
2023-05-05T13:01:22.613Z,10.38
2023-05-05T13:04:03.743Z,11.50
2023-05-05T13:06:31.542Z,13.52
2023-05-05T13:11:26.192Z,13.55
2023-05-05T13:13:54.921Z,11.88
2023-05-05T13:16:22.325Z,20.08
2023-05-05T13:18:50.328Z,18.35
2023-05-05T13:21:17.768Z,14.93
2023-05-05T13:23:45.206Z,20.05
2023-05-05T13:26:13.371Z,14.77
2023-05-05T13:28:41.098Z,13.50
2023-05-05T13:31:09.856Z,18.08
2023-05-05T13:33:37.342Z,14.60
2023-05-05T13:36:05.068Z,14.02
2023-05-05T13:38:33.247Z,14.55
2023-05-05T13:41:00.671Z,17.10
2023-05-05T13:43:28.049Z,14.18
2023-05-05T13:46:02.958Z,16.13
2023-05-05T13:48:34.589Z,10.98
2023-05-05T13:51:01.982Z,12.98
2023-05-05T13:53:29.366Z,11.43
2023-05-05T13:55:58.002Z,7.63
2023-05-05T13:58:25.360Z,8.07
2023-05-05T14:00:52.828Z,6.70
2023-05-05T14:03:20.421Z,7.65
2023-05-05T14:05:50.769Z,3.85
2023-05-05T14:08:19.829Z,6.25
2023-05-05T14:10:47.784Z,6.88
2023-05-05T14:13:16.223Z,5.65
2023-05-05T14:15:43.699Z,4.72
2023-05-05T14:18:11.155Z,5.32
2023-05-05T14:20:38.599Z,6.25
2023-05-05T14:23:07.308Z,5.07
2023-05-05T14:25:34.739Z,4.90
2023-05-05T14:28:02.409Z,5.90
2023-05-05T14:30:29.778Z,4.35
2023-05-05T14:32:57.194Z,3.00
2023-05-05T14:35:25.174Z,4.13
2023-05-05T14:37:52.555Z,2.40
2023-05-05T14:40:21.279Z,4.70
2023-05-05T14:42:50.705Z,2.25
2023-05-05T14:45:18.201Z,6.30
2023-05-05T14:47:45.602Z,3.17
2023-05-05T14:50:14.025Z,4.53
2023-05-05T14:52:41.668Z,3.88
2023-05-05T14:55:09.588Z,4.90
2023-05-05T14:57:39.002Z,8.70
2023-05-05T15:00:07.266Z,10.32
2023-05-05T15:02:34.667Z,11.63
2023-05-05T15:05:02.094Z,11.13
2023-05-05T15:07:29.806Z,10.30
2023-05-05T15:09:57.369Z,10.75
2023-05-05T15:12:25.837Z,9.32
2023-05-05T15:14:55.372Z,8.40
2023-05-05T15:17:22.924Z,8.18
2023-05-05T15:19:50.364Z,18.77
2023-05-05T15:22:17.817Z,11.43
2023-05-05T15:24:45.199Z,11.82
2023-05-05T15:27:12.631Z,10.68
2023-05-05T15:29:40.092Z,13.80
2023-05-05T15:32:08.915Z,11.10
2023-05-05T15:34:37.266Z,6.85
2023-05-05T15:37:04.715Z,17.73
2023-05-05T15:39:32.091Z,18.35
2023-05-05T15:42:02.581Z,10.93
2023-05-05T15:44:30.012Z,15.02
2023-05-05T15:46:57.470Z,12.75
2023-05-05T15:49:26.254Z,12.23
2023-05-05T15:51:53.637Z,9.35
2023-05-05T15:54:21.030Z,10.02
2023-05-05T15:56:48.417Z,8.95
2023-05-05T15:59:15.791Z,9.20
2023-05-05T16:01:43.193Z,13.35
2023-05-05T16:04:10.589Z,10.63
2023-05-05T16:06:39.388Z,9.60
2023-05-05T16:09:06.818Z,8.23
2023-05-05T16:11:34.310Z,15.63
2023-05-05T16:14:01.712Z,10.75
2023-05-05T16:16:29.162Z,15.93
2023-05-05T16:18:56.595Z,18.65
2023-05-05T16:21:23.946Z,10.05
2023-05-05T16:23:52.701Z,10.23
2023-05-05T16:26:20.082Z,11.70
2023-05-05T16:28:47.492Z,18.23
2023-05-05T16:31:15.032Z,11.07
2023-05-05T16:33:43.568Z,12.93
2023-05-05T16:36:11.395Z,17.30
2023-05-05T16:41:08.095Z,14.15
2023-05-05T16:43:35.902Z,12.40
2023-05-05T16:46:03.547Z,10.68
2023-05-05T16:48:30.969Z,9.20
2023-05-05T16:50:58.597Z,8.88
2023-05-05T16:53:26.312Z,19.90
2023-05-05T16:55:54.403Z,13.13
2023-05-05T16:58:23.371Z,11.82
2023-05-05T17:00:50.798Z,12.05
2023-05-05T17:03:18.598Z,7.93
2023-05-05T17:05:49.064Z,11.15
2023-05-05T17:08:17.342Z,7.30
2023-05-05T17:10:45.359Z,8.52
2023-05-05T17:15:41.620Z,10.85
2023-05-05T17:18:09.171Z,7.38
2023-05-05T17:20:37.153Z,8.13
2023-05-05T17:23:04.898Z,5.10
2023-05-05T17:25:32.280Z,8.25
2023-05-05T17:27:59.683Z,8.75
2023-05-05T17:30:27.440Z,4.57
2023-05-05T17:32:56.845Z,4.55
2023-05-05T17:35:24.305Z,7.28
2023-05-05T17:37:51.746Z,10.57
2023-05-05T17:40:19.122Z,5.47
2023-05-05T17:42:46.504Z,8.05
2023-05-05T17:45:13.859Z,8.27
2023-05-05T17:47:41.262Z,5.57
2023-05-05T17:50:11.610Z,5.15
2023-05-05T17:52:40.408Z,11.90
2023-05-05T17:55:08.288Z,6.75
2023-05-05T17:57:35.973Z,8.15
2023-05-05T18:00:04.496Z,8.48
2023-05-05T18:02:39.806Z,9.05
2023-05-05T18:05:08.307Z,7.90
2023-05-05T18:07:38.476Z,6.90
2023-05-05T18:10:08.107Z,7.60
2023-05-05T18:12:35.559Z,6.95
2023-05-05T18:15:03.129Z,13.00
2023-05-05T18:17:30.563Z,7.72
2023-05-05T18:19:57.942Z,14.15
2023-05-05T18:22:25.315Z,9.52
2023-05-05T18:24:58.786Z,8.38
2023-05-05T18:27:26.855Z,7.53
2023-05-05T18:29:54.294Z,7.75
2023-05-05T18:32:21.704Z,9.75
2023-05-05T18:34:49.072Z,11.82
2023-05-05T18:37:16.473Z,10.23
2023-05-05T18:39:44.928Z,12.63
2023-05-05T18:42:13.812Z,8.98
2023-05-05T18:44:41.480Z,8.75
2023-05-05T18:47:08.961Z,7.65
2023-05-05T18:49:36.503Z,7.50
2023-05-05T18:52:03.981Z,12.52
2023-05-05T18:54:31.553Z,13.52
2023-05-05T18:56:59.188Z,7.35
2023-05-05T18:59:27.937Z,9.95
2023-05-05T19:01:55.314Z,9.85
2023-05-05T19:04:30.109Z,13.30
2023-05-05T19:06:58.931Z,12.63
2023-05-05T19:09:26.333Z,16.02
2023-05-05T19:11:53.694Z,13.18
2023-05-05T19:14:21.168Z,17.60
2023-05-05T19:16:49.961Z,18.52
2023-05-05T19:19:17.378Z,19.75
2023-05-05T19:21:44.841Z,25.85
2023-05-05T19:24:12.483Z,17.77
2023-05-05T19:26:39.968Z,11.27
2023-05-05T19:29:07.312Z,13.82
2023-05-05T19:31:34.704Z,14.32
2023-05-05T19:34:05.181Z,12.55
2023-05-05T19:36:32.834Z,12.02
2023-05-05T19:39:01.615Z,20.40
2023-05-05T19:41:29.253Z,15.32
2023-05-05T19:43:56.632Z,15.65
2023-05-05T19:46:25.389Z,11.43
2023-05-05T19:48:52.805Z,21.55
2023-05-05T19:51:21.513Z,16.50
2023-05-05T19:53:49.004Z,15.32
2023-05-05T19:56:16.869Z,20.30
2023-05-05T20:01:12.082Z,15.60
2023-05-05T20:06:07.451Z,20.05
2023-05-05T20:11:03.394Z,12.63
2023-05-05T20:13:30.896Z,12.80
2023-05-05T20:15:58.493Z,24.50
2023-05-05T20:18:25.905Z,22.25
2023-05-05T20:20:53.364Z,17.95
2023-05-05T20:23:20.740Z,20.98
2023-05-05T20:25:48.129Z,16.80
2023-05-05T20:28:16.838Z,17.73
2023-05-05T20:30:44.424Z,17.25
2023-05-05T20:33:12.147Z,18.83
2023-05-05T20:35:39.836Z,15.43
2023-05-05T20:38:09.560Z,16.75
2023-05-05T20:40:37.583Z,13.27
2023-05-05T20:43:05.415Z,19.23
2023-05-05T20:45:37.289Z,30.55
2023-05-05T20:48:05.611Z,28.70
2023-05-05T20:50:33.447Z,20.80
2023-05-05T20:53:01.106Z,31.48
2023-05-05T20:55:28.882Z,37.00
2023-05-05T20:57:56.634Z,31.95
2023-05-05T21:00:24.755Z,31.90
2023-05-05T21:02:55.151Z,19.23
2023-05-05T21:05:23.109Z,21.40
2023-05-05T21:10:18.975Z,33.75
2023-05-05T21:17:42.212Z,21.85
2023-05-05T21:22:39.467Z,26.10
2023-05-05T21:25:11.324Z,29.20
2023-05-05T21:27:39.294Z,35.28
2023-05-05T21:32:38.104Z,26.05
2023-05-05T21:35:06.762Z,19.55
2023-05-05T21:37:34.869Z,20.10
2023-05-05T21:40:04.106Z,36.22
2023-05-05T21:42:32.040Z,22.60
2023-05-05T21:49:55.467Z,18.45
2023-05-05T21:52:23.294Z,28.92
2023-05-05T21:59:47.887Z,17.35
2023-05-05T22:02:15.636Z,20.17
2023-05-05T22:04:46.302Z,20.80
2023-05-05T22:07:14.037Z,24.67
2023-05-05T22:09:41.798Z,42.47
2023-05-05T22:12:09.239Z,31.48
2023-05-05T22:14:36.702Z,36.72
2023-05-05T22:17:05.460Z,25.65
2023-05-05T22:19:32.806Z,18.55
2023-05-05T22:22:00.166Z,36.67
2023-05-05T22:24:27.525Z,22.42
2023-05-05T22:26:54.955Z,16.27
2023-05-05T22:29:22.350Z,15.98
2023-05-05T22:31:49.723Z,24.83
2023-05-05T22:34:21.627Z,35.42
2023-05-05T22:36:49.596Z,31.63
2023-05-05T22:41:45.830Z,23.58
2023-05-05T22:44:13.253Z,20.17
2023-05-05T22:46:40.897Z,22.23
2023-05-05T22:49:08.822Z,28.92
2023-05-05T22:54:04.965Z,23.83
2023-05-05T22:56:32.641Z,21.90
2023-05-05T22:59:00.031Z,33.90
2023-05-05T23:01:27.487Z,32.25
2023-05-05T23:03:54.906Z,38.00
2023-05-05T23:06:22.283Z,27.15
2023-05-05T23:08:49.774Z,19.88
2023-05-05T23:11:18.454Z,30.17
2023-05-05T23:13:45.841Z,29.30
2023-05-05T23:16:13.626Z,23.20
2023-05-05T23:18:41.084Z,22.08
2023-05-05T23:21:08.467Z,25.23
2023-05-05T23:23:35.868Z,25.27
2023-05-05T23:26:03.225Z,25.20
2023-05-05T23:28:32.000Z,36.90
2023-05-05T23:30:59.464Z,45.55
2023-05-05T23:33:26.859Z,29.23
2023-05-05T23:35:54.251Z,36.35
2023-05-05T23:38:21.732Z,25.52
2023-05-05T23:40:49.105Z,23.63
2023-05-05T23:43:16.462Z,23.10
2023-05-05T23:45:45.171Z,21.70
2023-05-05T23:48:12.554Z,24.85
2023-05-05T23:50:40.005Z,24.23
2023-05-05T23:53:07.361Z,39.95
2023-05-05T23:55:34.765Z,39.55
2023-05-05T23:58:02.147Z,37.90
